Time;durP1;ratioP1;P1;durP2;ratioP2;P2;SDS_P1;SDS_P2;PMS_P1;PMS_P2;Temp;Humidity;BMP_temperature;BMP_pressure;BME280_temperature;BME280_humidity;BME280_pressure;Samples;Min_cycle;Max_cycle;Signal;HPM_P1;HPM_P2
2023/12/10 00:00:22;;;;;;;16.53;10.53;;;;;;;2.27;100.00;124322.59;6185124;23;20174;-60
2023/12/10 00:02:49;;;;;;;14.43;10.73;;;;;;;2.24;100.00;118583.41;6184928;23;20159;-61
2023/12/10 00:05:16;;;;;;;11.87;10.67;;;;;;;2.27;100.00;118099.84;6184977;23;20182;-60
2023/12/10 00:07:43;;;;;;;12.87;9.93;;;;;;;2.28;100.00;119094.03;6185264;23;20590;-60
2023/12/10 00:10:10;;;;;;;12.60;10.10;;;;;;;2.37;100.00;122533.25;6184876;23;20165;-61
2023/12/10 00:12:40;;;;;;;10.80;9.77;;;;;;;2.38;100.00;124339.84;6185152;23;20162;-61
2023/12/10 00:15:08;;;;;;;15.17;10.83;;;;;;;2.28;100.00;126041.94;6185232;23;20181;-59
2023/12/10 00:17:35;;;;;;;11.83;9.90;;;;;;;2.48;100.00;129358.22;6185427;23;20581;-60
2023/12/10 00:20:03;;;;;;;14.23;9.90;;;;;;;2.55;100.00;134234.94;6185016;23;20161;-59
2023/12/10 00:22:30;;;;;;;10.40;9.37;;;;;;;2.56;100.00;139481.31;6184641;23;20224;-61
2023/12/10 00:24:57;;;;;;;11.00;9.37;;;;;;;2.52;100.00;143048.88;6185057;23;20192;-59
2023/12/10 00:27:24;;;;;;;11.30;10.17;;;;;;;2.53;100.00;140518.97;6185147;23;20180;-60
2023/12/10 00:29:53;;;;;;;11.57;10.20;;;;;;;2.47;100.00;133736.22;6184582;23;20602;-60
2023/12/10 00:32:20;;;;;;;11.47;10.33;;;;;;;2.44;100.00;127471.56;6184549;23;20166;-59
2023/12/10 00:34:47;;;;;;;13.70;11.20;;;;;;;2.29;100.00;117490.88;6184595;23;20213;-61
2023/12/10 00:37:14;;;;;;;13.37;10.27;;;;;;;1.45;100.00;114741.94;6184469;23;20162;-60
2023/12/10 00:39:41;;;;;;;13.47;10.47;;;;;;;2.53;100.00;119416.06;6184852;23;20659;-60
2023/12/10 00:42:08;;;;;;;12.63;10.10;;;;;;;2.46;100.00;125473.78;6184958;23;20197;-61
2023/12/10 00:44:35;;;;;;;11.63;10.10;;;;;;;2.48;100.00;126052.25;6184386;23;20181;-60
2023/12/10 00:47:04;;;;;;;11.03;9.47;;;;;;;2.47;100.00;120537.00;6184452;23;20165;-61
2023/12/10 00:49:31;;;;;;;11.50;9.50;;;;;;;2.42;100.00;118271.03;6184623;23;20165;-61
2023/12/10 00:51:59;;;;;;;14.83;10.90;;;;;;;2.31;100.00;117148.13;6184690;23;20244;-61
2023/12/10 00:54:26;;;;;;;13.57;9.80;;;;;;;2.39;100.00;115376.13;6184298;23;20165;-61
2023/12/10 00:56:53;;;;;;;12.73;10.47;;;;;;;2.36;100.00;111637.06;6184337;23;20194;-60
2023/12/10 00:59:20;;;;;;;14.77;10.13;;;;;;;2.43;100.00;115167.41;6184251;23;20332;-61
2023/12/10 01:01:47;;;;;;;11.87;9.17;;;;;;;2.30;100.00;114728.41;6184251;23;20165;-61
2023/12/10 01:04:16;;;;;;;11.33;8.67;;;;;;;2.57;100.00;117959.53;6184257;23;20209;-60
2023/12/10 01:06:43;;;;;;;13.43;9.40;;;;;;;2.63;100.00;127861.00;6184253;23;20159;-60
2023/12/10 01:09:10;;;;;;;11.13;9.90;;;;;;;2.59;100.00;129793.63;6184227;23;20170;-60
2023/12/10 01:11:37;;;;;;;9.57;8.73;;;;;;;2.59;100.00;131276.16;6184273;23;20158;-61
2023/12/10 01:14:04;;;;;;;14.83;10.43;;;;;;;2.80;100.00;134011.78;6184594;23;20162;-60
2023/12/10 01:16:32;;;;;;;11.43;10.00;;;;;;;2.80;100.00;139700.41;6183978;23;20170;-61
2023/12/10 01:18:59;;;;;;;10.13;9.03;;;;;;;2.61;100.00;136687.25;6184299;23;20250;-61
2023/12/10 01:21:27;;;;;;;13.00;9.90;;;;;;;2.53;100.00;132753.31;6184226;23;20157;-60
2023/12/10 01:23:55;;;;;;;10.80;9.37;;;;;;;2.55;100.00;125921.59;6184137;23;20190;-61
2023/12/10 01:26:23;;;;;;;10.83;9.63;;;;;;;2.42;100.00;113329.31;6184017;23;20193;-61
2023/12/10 01:28:51;;;;;;;10.33;9.03;;;;;;;2.35;100.00;106077.03;6184374;23;20158;-60
2023/12/10 01:31:18;;;;;;;10.83;9.73;;;;;;;2.37;100.00;105429.13;6184065;23;20166;-61
2023/12/10 01:33:45;;;;;;;10.40;9.40;;;;;;;2.47;100.00;108377.47;6184279;23;20617;-61
2023/12/10 01:36:22;;;;;;;10.20;8.70;;;;;;;2.55;100.00;110998.59;6183917;23;20163;-61
2023/12/10 01:38:51;;;;;;;10.53;8.27;;;;;;;2.57;100.00;115138.97;6184277;23;20319;-61
2023/12/10 01:41:18;;;;;;;9.70;8.73;;;;;;;2.48;100.00;115119.63;6183991;23;20162;-61
2023/12/10 01:43:46;;;;;;;11.27;9.67;;;;;;;2.49;100.00;110044.41;6183869;23;20162;-60
2023/12/10 01:46:14;;;;;;;13.47;9.47;;;;;;;2.45;100.00;105444.50;6184174;23;20232;-59
2023/12/10 01:48:43;;;;;;;10.73;9.50;;;;;;;2.38;100.00;103480.59;6184264;23;20605;-60
2023/12/10 01:51:11;;;;;;;11.13;9.23;;;;;;;2.53;100.00;100256.78;6183998;23;20170;-60
2023/12/10 01:53:39;;;;;;;11.37;10.20;;;;;;;2.50;100.00;103827.13;6183813;23;20542;-61
2023/12/10 01:56:09;;;;;;;10.23;9.13;;;;;;;2.47;100.00;106748.81;6183879;23;20237;-60
2023/12/10 01:58:38;;;;;;;10.07;9.03;;;;;;;2.49;100.00;103500.16;6183844;23;20197;-60
2023/12/10 02:01:06;;;;;;;11.37;9.00;;;;;;;2.47;100.00;103495.69;6184188;23;20220;-60
2023/12/10 02:03:34;;;;;;;10.37;9.33;;;;;;;2.40;100.00;102508.03;6184252;23;20177;-61
2023/12/10 02:06:02;;;;;;;10.80;8.80;;;;;;;2.52;100.00;101554.84;6183689;23;20284;-60
2023/12/10 02:08:29;;;;;;;9.90;8.87;;;;;;;2.61;100.00;104821.75;6184084;23;20157;-61
2023/12/10 02:10:56;;;;;;;10.67;8.87;;;;;;;2.72;100.00;109728.78;6183546;23;20218;-60
2023/12/10 02:13:26;;;;;;;11.23;9.80;;;;;;;2.71;100.00;115870.41;6183838;23;20585;-60
2023/12/10 02:15:54;;;;;;;9.33;8.33;;;;;;;2.68;100.00;117421.41;6184108;23;20216;-60
2023/12/10 02:18:21;;;;;;;9.90;8.93;;;;;;;2.56;100.00;115891.63;6183722;23;20188;-61
2023/12/10 02:20:48;;;;;;;9.53;8.60;;;;;;;2.64;100.00;115955.94;6183791;23;20158;-60
2023/12/10 02:23:31;;;;;;;9.40;8.17;;;;;;;2.70;100.00;118812.69;6184217;23;20517;-61
2023/12/10 02:26:00;;;;;;;11.47;9.27;;;;;;;2.82;100.00;123991.66;6184452;23;20641;-60
2023/12/10 02:28:28;;;;;;;10.13;8.87;;;;;;;2.73;100.00;131318.97;6184165;23;20192;-61
2023/12/10 02:30:55;;;;;;;8.90;8.10;;;;;;;2.93;100.00;134916.16;6184214;23;20165;-60
2023/12/10 02:33:22;;;;;;;10.07;8.40;;;;;;;2.85;100.00;137825.25;6184151;23;20166;-60
2023/12/10 02:35:49;;;;;;;10.63;9.63;;;;;;;2.93;100.00;137849.25;6184178;23;20668;-59
2023/12/10 02:38:20;;;;;;;11.57;8.80;;;;;;;2.88;100.00;136916.06;6184036;23;20162;-60
2023/12/10 02:40:48;;;;;;;10.63;8.67;;;;;;;2.95;100.00;137452.34;6183624;23;20161;-60
2023/12/10 02:43:19;;;;;;;10.53;8.53;;;;;;;2.99;100.00;137570.75;6183591;23;20173;-60
2023/12/10 02:45:46;;;;;;;12.20;8.93;;;;;;;2.92;100.00;140922.47;6183629;23;20182;-60
2023/12/10 02:48:13;;;;;;;11.10;9.30;;;;;;;3.02;100.00;140414.66;6183603;23;20166;-60
2023/12/10 02:50:40;;;;;;;9.47;8.67;;;;;;;2.91;100.00;140214.75;6183920;23;20197;-61
2023/12/10 02:53:08;;;;;;;12.97;9.77;;;;;;;2.79;100.00;134410.91;6183650;23;20198;-61
2023/12/10 02:55:35;;;;;;;12.40;9.27;;;;;;;2.89;100.00;133790.25;6183811;23;20158;-60
2023/12/10 02:58:02;;;;;;;9.87;8.87;;;;;;;2.97;100.00;137110.53;6183944;23;20161;-60
2023/12/10 03:00:30;;;;;;;10.23;9.23;;;;;;;2.97;100.00;137914.03;6184076;23;20174;-60
2023/12/10 03:02:57;;;;;;;11.27;9.30;;;;;;;2.73;100.00;134468.59;6183739;23;20529;-61
2023/12/10 03:05:24;;;;;;;13.63;9.80;;;;;;;2.74;100.00;130565.59;6184094;23;20252;-61
2023/12/10 03:07:52;;;;;;;14.13;10.53;;;;;;;2.73;100.00;124843.94;6183977;23;20166;-60
2023/12/10 03:10:19;;;;;;;14.63;9.50;;;;;;;2.79;100.00;118430.25;6184156;23;20475;-61
2023/12/10 03:12:46;;;;;;;10.60;9.50;;;;;;;2.78;100.00;114629.63;6183521;23;20166;-63
2023/12/10 03:15:13;;;;;;;17.13;10.73;;;;;;;2.87;100.00;111710.78;6183617;23;20158;-61
2023/12/10 03:17:42;;;;;;;21.00;12.87;;;;;;;2.80;100.00;113654.53;6183517;23;20220;-61
2023/12/10 03:20:12;;;;;;;20.87;12.20;;;;;;;2.75;100.00;109406.03;6183385;23;20158;-62
2023/12/10 03:22:39;;;;;;;16.63;11.10;;;;;;;2.72;100.00;106794.59;6184492;23;20201;-61
2023/12/10 03:25:07;;;;;;;16.50;10.73;;;;;;;2.64;100.00;100600.66;6185121;23;20194;-60
2023/12/10 03:27:35;;;;;;;15.70;10.73;;;;;;;2.70;100.00;98011.88;6185230;23;20164;-60
2023/12/10 03:30:02;;;;;;;14.20;10.33;;;;;;;2.70;100.00;96713.00;6185713;23;20167;-61
2023/12/10 03:32:29;;;;;;;13.07;10.00;;;;;;;2.78;100.00;95101.53;6185275;23;20217;-60
2023/12/10 03:34:58;;;;;;;17.87;10.97;;;;;;;2.73;100.00;93472.00;6185165;23;20166;-60
2023/12/10 03:37:25;;;;;;;16.80;10.87;;;;;;;2.76;100.00;92180.31;6185630;23;20548;-61
2023/12/10 03:39:52;;;;;;;14.27;11.50;;;;;;;2.76;100.00;92503.78;6185277;23;20166;-61
2023/12/10 03:42:19;;;;;;;11.40;10.00;;;;;;;2.71;100.00;93468.81;6185530;23;20220;-61
2023/12/10 03:44:47;;;;;;;12.63;10.60;;;;;;;2.56;100.00;94742.84;6185504;23;20676;-61
2023/12/10 03:47:14;;;;;;;17.80;11.40;;;;;;;2.43;100.00;86945.88;6185412;23;20233;-60
2023/12/10 03:49:41;;;;;;;15.50;10.80;;;;;;;2.58;100.00;82545.94;6185416;23;20533;-60
2023/12/10 03:52:09;;;;;;;23.37;12.17;;;;;;;2.61;100.00;83091.44;6185275;23;20256;-60
2023/12/10 03:54:37;;;;;;;21.07;11.30;;;;;;;2.55;100.00;83405.44;6184838;23;20167;-60
2023/12/10 03:57:04;;;;;;;16.73;11.00;;;;;;;2.51;100.00;82429.91;6185446;23;20544;-61
2023/12/10 03:59:31;;;;;;;16.93;10.90;;;;;;;2.76;100.00;83435.59;6185326;23;20545;-60
2023/12/10 04:01:58;;;;;;;13.67;11.33;;;;;;;2.83;100.00;84739.81;6184909;23;20220;-60
2023/12/10 04:04:26;;;;;;;19.67;11.33;;;;;;;2.84;100.00;86035.94;6184826;23;20165;-60
2023/12/10 04:06:53;;;;;;;15.87;11.13;;;;;;;2.87;100.00;88306.56;6184917;23;20181;-62
2023/12/10 04:09:21;;;;;;;19.33;10.73;;;;;;;2.78;100.00;90237.63;6185277;23;20553;-60
2023/12/10 04:11:49;;;;;;;18.03;11.40;;;;;;;2.78;100.00;96724.63;6184792;23;20244;-60
2023/12/10 04:14:16;;;;;;;14.07;11.30;;;;;;;2.62;100.00;98647.09;6184881;23;20548;-61
2023/12/10 04:16:43;;;;;;;19.60;10.43;;;;;;;2.75;100.00;99969.66;6184690;23;20219;-61
2023/12/10 04:19:11;;;;;;;15.57;11.50;;;;;;;2.78;100.00;99324.00;6184799;23;20167;-60
2023/12/10 04:21:38;;;;;;;14.03;10.47;;;;;;;2.64;100.00;93782.69;6184844;23;20281;-61
2023/12/10 04:24:06;;;;;;;17.63;10.43;;;;;;;2.41;100.00;90828.09;6184695;23;20162;-61
2023/12/10 04:26:34;;;;;;;15.00;9.27;;;;;;;2.44;100.00;91156.75;6184911;23;20716;-61
2023/12/10 04:29:01;;;;;;;13.13;8.73;;;;;;;2.50;100.00;90842.94;6185048;23;20162;-60
2023/12/10 04:31:28;;;;;;;14.10;9.10;;;;;;;2.43;100.00;88564.22;6185052;23;20172;-61
2023/12/10 04:33:55;;;;;;;12.20;10.37;;;;;;;2.52;100.00;89549.47;6184787;23;20506;-60
2023/12/10 04:36:23;;;;;;;10.13;9.23;;;;;;;2.43;100.00;89211.78;6184989;23;20264;-61
2023/12/10 04:38:50;;;;;;;16.60;9.57;;;;;;;2.61;100.00;88915.53;6184635;23;20245;-61
2023/12/10 04:41:17;;;;;;;9.00;8.27;;;;;;;2.70;100.00;89577.19;6184501;23;20194;-61
2023/12/10 04:43:48;;;;;;;13.33;9.53;;;;;;;2.80;100.00;91537.34;6184395;23;20158;-61
2023/12/10 04:46:15;;;;;;;13.27;10.00;;;;;;;2.88;100.00;97715.63;6184321;23;20267;-61
2023/12/10 04:48:42;;;;;;;14.97;10.00;;;;;;;2.75;100.00;103871.66;6184816;23;20166;-62
2023/12/10 04:51:09;;;;;;;14.90;9.10;;;;;;;2.71;100.00;108421.16;6184651;23;20224;-60
2023/12/10 04:53:37;;;;;;;9.67;8.77;;;;;;;2.75;100.00;110710.69;6184568;23;20201;-61
2023/12/10 04:56:04;;;;;;;16.10;8.80;;;;;;;2.86;100.00;107145.94;6184353;23;20161;-61
2023/12/10 04:58:31;;;;;;;12.20;8.93;;;;;;;2.78;100.00;108433.22;6184393;23;20164;-61
2023/12/10 05:01:02;;;;;;;11.30;7.53;;;;;;;2.83;100.00;112355.44;6184378;23;20213;-60
2023/12/10 05:03:29;;;;;;;9.33;8.50;;;;;;;2.89;100.00;119265.00;6184625;23;20541;-60
2023/12/10 05:05:56;;;;;;;7.97;7.27;;;;;;;2.86;100.00;121440.19;6184442;23;20565;-61
2023/12/10 05:08:23;;;;;;;7.43;6.83;;;;;;;2.97;100.00;127692.66;6184533;23;20169;-60
2023/12/10 05:10:50;;;;;;;8.00;7.20;;;;;;;2.83;100.00;135754.94;6184232;23;20167;-59
2023/12/10 05:13:17;;;;;;;7.50;6.90;;;;;;;2.66;100.00;129082.16;6184722;23;20541;-60
2023/12/10 05:15:45;;;;;;;8.67;7.90;;;;;;;2.80;100.00;120278.22;6184236;23;20161;-60
2023/12/10 05:18:13;;;;;;;8.73;7.90;;;;;;;2.61;100.00;115575.16;6184615;23;20769;-59
2023/12/10 05:20:40;;;;;;;11.10;7.47;;;;;;;2.92;100.00;115310.06;6184133;23;20162;-60
2023/12/10 05:23:07;;;;;;;7.40;6.87;;;;;;;2.85;100.00;113990.59;6184528;23;20166;-60
2023/12/10 05:25:34;;;;;;;8.57;7.50;;;;;;;2.91;100.00;112370.84;6184113;23;20174;-60
2023/12/10 05:28:01;;;;;;;13.60;7.57;;;;;;;2.89;100.00;117263.59;6184620;23;20245;-61
2023/12/10 05:30:28;;;;;;;11.00;7.63;;;;;;;2.81;100.00;119730.22;6184057;23;20159;-61
2023/12/10 05:32:56;;;;;;;8.03;6.57;;;;;;;2.91;100.00;118000.16;6184099;23;20224;-61
2023/12/10 05:35:24;;;;;;;7.60;6.40;;;;;;;2.84;100.00;115620.75;6184119;23;20169;-60
2023/12/10 05:37:51;;;;;;;6.13;5.73;;;;;;;2.74;100.00;110056.88;6184371;23;20482;-60
2023/12/10 05:40:18;;;;;;;6.40;5.83;;;;;;;2.57;100.00;106441.63;6184056;23;20158;-61
2023/12/10 05:42:45;;;;;;;8.70;6.83;;;;;;;2.69;100.00;101583.59;6184309;23;20585;-60
2023/12/10 05:45:13;;;;;;;7.30;6.70;;;;;;;2.76;100.00;98346.78;6183599;23;20165;-61
2023/12/10 05:47:40;;;;;;;8.50;7.63;;;;;;;2.69;100.00;98334.13;6183732;23;20185;-61
2023/12/10 05:50:06;;;;;;;7.67;6.70;;;;;;;2.66;100.00;95082.78;6183927;23;20177;-61
2023/12/10 05:52:34;;;;;;;8.00;7.30;;;;;;;2.84;100.00;95436.78;6183983;23;20652;-61
2023/12/10 05:55:02;;;;;;;8.90;7.27;;;;;;;2.88;100.00;96417.34;6184298;23;20169;-61
2023/12/10 05:57:29;;;;;;;8.33;7.53;;;;;;;2.91;100.00;95772.91;6184030;23;20208;-61
2023/12/10 05:59:56;;;;;;;7.87;7.07;;;;;;;2.97;100.00;93835.03;6183899;23;20173;-61
2023/12/10 06:02:23;;;;;;;8.00;7.30;;;;;;;2.78;100.00;95101.53;6184273;23;20241;-60
2023/12/10 06:04:50;;;;;;;7.13;6.53;;;;;;;2.98;100.00;98383.06;6183924;23;20506;-61
2023/12/10 06:07:17;;;;;;;8.03;7.37;;;;;;;2.90;100.00;98044.66;6183730;23;20217;-60
2023/12/10 06:09:46;;;;;;;8.40;7.70;;;;;;;2.89;100.00;94471.19;6183727;23;20226;-61
2023/12/10 06:12:13;;;;;;;9.37;7.73;;;;;;;3.04;100.00;89628.81;6183819;23;20199;-61
2023/12/10 06:14:40;;;;;;;7.43;6.77;;;;;;;3.19;100.00;84791.59;6184236;23;20605;-60
2023/12/10 06:17:09;;;;;;;8.33;7.57;;;;;;;3.72;100.00;82924.31;6184197;23;20165;-62
2023/12/10 06:19:36;;;;;;;7.70;7.00;;;;;;;3.93;100.00;107993.41;6183809;23;20224;-61
2023/12/10 06:22:03;;;;;;;8.77;7.93;;;;;;;4.42;100.00;144792.06;6184144;23;20237;-62
2023/12/10 06:24:30;;;;;;;8.70;7.90;;;;;;;4.78;100.00;147254.31;6184079;23;20549;-60
2023/12/10 06:26:59;;;;;;;6.73;6.23;;;;;;;5.01;100.00;147312.16;6183805;23;20178;-61
2023/12/10 06:29:26;;;;;;;6.50;6.10;;;;;;;5.14;100.00;147342.34;6184168;23;20594;-60
2023/12/10 06:31:53;;;;;;;7.97;7.37;;;;;;;5.15;100.00;147344.88;6183682;23;20257;-60
2023/12/10 06:34:20;;;;;;;6.80;6.40;;;;;;;5.42;100.00;147414.13;6183726;23;20162;-60
2023/12/10 06:36:47;;;;;;;6.97;6.37;;;;;;;6.02;100.00;147561.47;6183808;23;20162;-60
2023/12/10 06:39:16;;;;;;;6.77;6.37;;;;;;;6.24;100.00;147618.13;6183600;23;20162;-60
2023/12/10 06:41:43;;;;;;;6.60;6.00;;;;;;;6.62;100.00;147712.59;6183696;23;20168;-61
2023/12/10 06:44:14;;;;;;;6.30;5.90;;;;;;;7.16;100.00;147846.22;6183611;23;20240;-60
2023/12/10 06:46:42;;;;;;;6.40;6.00;;;;;;;7.79;100.00;148003.81;6183560;23;20178;-62
2023/12/10 06:49:09;;;;;;;6.73;6.23;;;;;;;8.38;100.00;148150.19;6183590;23;20198;-61
2023/12/10 06:51:36;;;;;;;6.63;6.00;;;;;;;9.18;100.00;148352.13;6184158;23;20178;-60
2023/12/10 06:54:03;;;;;;;7.70;7.00;;;;;;;9.40;100.00;148406.44;6183495;23;20684;-61
2023/12/10 06:56:30;;;;;;;6.77;6.17;;;;;;;9.19;100.00;148353.41;6184777;23;20162;-62
2023/12/10 06:58:57;;;;;;;6.70;6.30;;;;;;;8.77;100.00;148248.63;6185549;23;20162;-61
2023/12/10 07:01:26;;;;;;;6.50;6.10;;;;;;;8.88;100.00;148276.38;6185625;23;20166;-62
2023/12/10 07:03:53;;;;;;;7.70;7.30;;;;;;;9.69;100.00;148477.16;6185474;23;20571;-60
2023/12/10 07:06:21;;;;;;;9.40;8.80;;;;;;;9.94;100.00;148540.31;6185290;23;20178;-61
2023/12/10 07:08:48;;;;;;;9.00;8.40;;;;;;;10.51;100.00;148683.19;6185337;23;20164;-62
2023/12/10 07:11:15;;;;;;;9.50;8.70;;;;;;;10.45;100.00;148668.00;6185774;23;20162;-61
2023/12/10 07:13:42;;;;;;;9.80;8.97;;;;;;;11.67;100.00;148974.00;6185787;23;20158;-61
2023/12/10 07:16:10;;;;;;;7.73;7.20;;;;;;;11.69;100.00;148979.06;6185879;23;20162;-61
2023/12/10 07:18:38;;;;;;;7.10;6.70;;;;;;;11.96;100.00;149046.19;6185410;23;20162;-60
2023/12/10 07:21:06;;;;;;;7.40;6.97;;;;;;;13.08;92.58;149325.94;6185414;23;20159;-61
2023/12/10 07:23:34;;;;;;;7.87;7.37;;;;;;;12.04;93.95;149065.16;6185609;23;20162;-61
2023/12/10 07:26:01;;;;;;;9.13;8.27;;;;;;;11.70;94.84;148980.34;6185226;23;20166;-60
2023/12/10 07:28:28;;;;;;;8.23;7.63;;;;;;;10.79;100.00;148753.94;6185375;23;20158;-61
2023/12/10 07:30:56;;;;;;;9.10;8.47;;;;;;;11.09;100.00;148828.56;6185290;23;20226;-60
2023/12/10 07:33:23;;;;;;;9.50;8.90;;;;;;;11.00;100.00;148807.06;6185594;23;20507;-61
2023/12/10 07:35:51;;;;;;;10.97;10.07;;;;;;;11.75;100.00;148993.06;6185174;23;20216;-60
2023/12/10 07:38:18;;;;;;;10.47;9.57;;;;;;;10.36;100.00;148646.50;6185240;23;20159;-60
2023/12/10 07:40:45;;;;;;;9.17;8.53;;;;;;;10.63;100.00;148712.22;6185026;23;20162;-60
2023/12/10 07:43:13;;;;;;;11.43;10.27;;;;;;;11.35;100.00;148894.31;6185048;23;20506;-60
2023/12/10 07:45:40;;;;;;;11.83;10.83;;;;;;;10.48;100.00;148676.81;6185332;23;20162;-60
2023/12/10 07:48:07;;;;;;;12.37;11.17;;;;;;;10.96;100.00;148795.66;6184961;23;20178;-62
2023/12/10 07:50:34;;;;;;;12.27;11.07;;;;;;;10.59;100.00;148703.38;6185323;23;20170;-60
2023/12/10 07:53:02;;;;;;;9.70;9.00;;;;;;;10.82;100.00;148760.31;6185074;23;20206;-60
2023/12/10 07:55:29;;;;;;;11.77;10.67;;;;;;;9.95;100.00;148542.84;6184973;23;20200;-60
2023/12/10 07:57:56;;;;;;;12.40;10.30;;;;;;;9.81;100.00;148508.72;6184938;23;20158;-59
2023/12/10 08:00:24;;;;;;;11.23;10.13;;;;;;;9.88;100.00;148526.44;6185144;23;20166;-60
2023/12/10 08:02:51;;;;;;;10.90;9.93;;;;;;;10.02;100.00;148561.78;6184908;23;20166;-61
2023/12/10 08:05:18;;;;;;;11.23;10.33;;;;;;;9.88;100.00;148526.44;6185429;23;20569;-60
2023/12/10 08:07:45;;;;;;;10.87;9.87;;;;;;;9.22;100.00;148359.69;6184990;23;20236;-60
2023/12/10 08:10:14;;;;;;;10.83;9.83;;;;;;;9.25;100.00;148368.53;6184964;23;20161;-59
2023/12/10 08:12:41;;;;;;;11.23;10.37;;;;;;;9.36;100.00;148395.06;6185000;23;20154;-60
2023/12/10 08:15:09;;;;;;;10.80;9.80;;;;;;;9.24;100.00;148366.03;6185218;23;20162;-59
2023/12/10 08:17:36;;;;;;;11.17;10.20;;;;;;;9.24;100.00;148364.78;6184835;23;20193;-60
2023/12/10 08:20:04;;;;;;;12.67;10.17;;;;;;;8.79;100.00;148252.38;6184716;23;20166;-60
2023/12/10 08:22:32;;;;;;;11.17;10.17;;;;;;;8.74;100.00;148239.81;6185290;23;20486;-60
2023/12/10 08:24:59;;;;;;;12.17;10.90;;;;;;;8.40;100.00;148155.25;6184577;23;20174;-59
2023/12/10 08:27:27;;;;;;;11.63;10.27;;;;;;;8.53;100.00;148189.28;6184712;23;20182;-60
2023/12/10 08:29:54;;;;;;;11.03;10.17;;;;;;;8.20;100.00;148107.22;6184997;23;20163;-60
2023/12/10 08:32:22;;;;;;;10.63;9.53;;;;;;;8.11;100.00;148084.50;6184847;23;20237;-60
2023/12/10 08:34:49;;;;;;;13.47;10.20;;;;;;;8.13;100.00;148088.31;6184526;23;20166;-60
2023/12/10 08:37:16;;;;;;;11.17;10.00;;;;;;;8.19;100.00;148104.69;6184624;23;20209;-60
2023/12/10 08:39:44;;;;;;;14.13;10.33;;;;;;;8.74;100.00;148239.81;6184610;23;20173;-59
2023/12/10 08:42:11;;;;;;;15.60;10.50;;;;;;;8.91;100.00;148283.94;6184689;23;20269;-60
2023/12/10 08:44:39;;;;;;;11.80;10.10;;;;;;;9.21;100.00;148358.44;6184437;23;20201;-60
2023/12/10 08:47:07;;;;;;;11.20;9.97;;;;;;;9.30;100.00;148381.16;6184317;23;20236;-60
2023/12/10 08:49:34;;;;;;;7.80;7.17;;;;;;;9.40;100.00;148406.44;6184423;23;20194;-60
2023/12/10 08:52:01;;;;;;;6.53;6.23;;;;;;;10.04;100.00;148566.88;6184673;23;20198;-60
2023/12/10 08:54:29;;;;;;;6.83;6.43;;;;;;;10.72;100.00;148736.25;6184523;23;20165;-61
2023/12/10 08:56:56;;;;;;;5.80;5.50;;;;;;;11.05;100.00;148818.44;6184910;23;20225;-59
2023/12/10 08:59:23;;;;;;;6.77;6.13;;;;;;;11.82;100.00;149010.75;6184835;23;20594;-60
2023/12/10 09:01:52;;;;;;;8.27;5.80;;;;;;;11.31;100.00;148884.22;6184244;23;20176;-60
2023/12/10 09:04:19;;;;;;;6.47;6.07;;;;;;;10.66;100.00;148721.06;6184307;23;20162;-59
2023/12/10 09:06:46;;;;;;;6.33;5.93;;;;;;;10.96;100.00;148796.94;6184093;23;20228;-60
2023/12/10 09:09:13;;;;;;;9.63;6.73;;;;;;;12.11;100.00;149082.88;6184249;23;20197;-61
2023/12/10 09:11:40;;;;;;;6.03;5.73;;;;;;;12.58;95.22;149200.59;6184298;23;20162;-61
2023/12/10 09:14:10;;;;;;;5.97;5.67;;;;;;;12.46;94.09;149171.50;6184117;23;20166;-59
2023/12/10 09:16:39;;;;;;;6.17;5.87;;;;;;;11.19;100.00;148853.84;6184616;23;20241;-59
2023/12/10 09:19:07;;;;;;;7.40;6.70;;;;;;;10.96;100.00;148795.66;6184441;23;20609;-60
2023/12/10 09:21:34;;;;;;;8.83;6.43;;;;;;;10.29;100.00;148628.81;6184071;23;20220;-59
2023/12/10 09:24:01;;;;;;;7.10;6.60;;;;;;;9.60;100.00;148455.66;6184503;23;20213;-60
2023/12/10 09:26:30;;;;;;;6.50;6.10;;;;;;;9.28;100.00;148376.13;6184136;23;20162;-59
2023/12/10 09:28:57;;;;;;;7.17;6.63;;;;;;;8.57;100.00;148198.16;6184024;23;20217;-60
2023/12/10 09:31:24;;;;;;;6.53;6.03;;;;;;;8.53;100.00;148189.28;6184015;23;20166;-59
2023/12/10 09:33:51;;;;;;;6.90;6.37;;;;;;;9.09;100.00;148329.41;6184041;23;20240;-60
2023/12/10 09:36:20;;;;;;;7.40;6.80;;;;;;;9.64;100.00;148467.03;6184347;23;20162;-59
2023/12/10 09:38:47;;;;;;;6.27;5.87;;;;;;;9.84;100.00;148515.06;6184080;23;20162;-60
2023/12/10 09:41:14;;;;;;;6.40;6.10;;;;;;;9.49;100.00;148429.16;6184417;23;20537;-60
2023/12/10 09:43:41;;;;;;;6.67;6.17;;;;;;;9.40;100.00;148405.16;6183860;23;20237;-61
2023/12/10 09:46:09;;;;;;;6.63;6.13;;;;;;;9.76;100.00;148494.88;6184384;23;20236;-60
2023/12/10 09:48:37;;;;;;;7.10;6.27;;;;;;;10.42;100.00;148661.69;6184315;23;20495;-61
2023/12/10 09:51:05;;;;;;;8.43;6.90;;;;;;;11.07;100.00;148823.50;6184062;23;20181;-60
2023/12/10 09:53:33;;;;;;;7.30;6.80;;;;;;;10.82;100.00;148761.53;6183878;23;20585;-60
2023/12/10 09:56:01;;;;;;;6.87;6.37;;;;;;;10.98;100.00;148800.75;6183977;23;20162;-61
2023/12/10 09:58:28;;;;;;;6.67;6.30;;;;;;;10.86;100.00;148770.41;6183902;23;20219;-59
2023/12/10 10:00:55;;;;;;;8.77;6.73;;;;;;;11.71;100.00;148982.88;6183856;23;20166;-59
2023/12/10 10:03:22;;;;;;;5.93;5.63;;;;;;;12.18;100.00;149100.56;6184205;23;20209;-60
2023/12/10 10:05:49;;;;;;;6.43;6.03;;;;;;;12.04;100.00;149066.44;6183956;23;20162;-61
2023/12/10 10:08:16;;;;;;;6.47;5.87;;;;;;;11.83;100.00;149013.28;6183675;23;20178;-60
2023/12/10 10:10:45;;;;;;;6.90;6.40;;;;;;;11.70;100.00;148980.34;6183758;23;20200;-60
2023/12/10 10:13:12;;;;;;;7.53;6.00;;;;;;;12.99;100.00;149304.41;6183856;23;20162;-61
2023/12/10 10:15:39;;;;;;;6.33;6.03;;;;;;;14.95;87.73;149795.00;6183885;23;20158;-60
2023/12/10 10:18:07;;;;;;;6.40;5.83;;;;;;;15.40;78.43;149909.16;6184366;23;20678;-60
2023/12/10 10:20:34;;;;;;;6.37;5.93;;;;;;;15.35;77.36;149896.53;6184108;23;20353;-60
2023/12/10 10:23:01;;;;;;;6.60;6.30;;;;;;;15.34;74.91;149892.69;6184148;23;20537;-59
2023/12/10 10:25:28;;;;;;;7.33;6.23;;;;;;;15.78;72.96;150003.16;6184202;23;20597;-61
2023/12/10 10:27:57;;;;;;;6.23;5.70;;;;;;;15.41;73.17;149911.72;6183710;23;20182;-61
2023/12/10 10:30:24;;;;;;;5.73;5.20;;;;;;;13.74;83.32;149492.00;6184231;23;20495;-59
2023/12/10 10:32:52;;;;;;;6.57;6.27;;;;;;;13.07;93.16;149324.69;6185718;23;20220;-60
2023/12/10 10:35:20;;;;;;;6.57;5.97;;;;;;;12.48;100.00;149175.25;6186120;23;20154;-59
2023/12/10 10:37:48;;;;;;;6.03;5.73;;;;;;;12.35;100.00;149143.63;6185689;23;20162;-61
2023/12/10 10:40:16;;;;;;;6.10;5.80;;;;;;;12.15;100.00;149093.00;6186102;23;20494;-59
2023/12/10 10:42:46;;;;;;;6.00;5.60;;;;;;;12.31;100.00;149134.75;6185995;23;20213;-60
2023/12/10 10:45:14;;;;;;;6.27;5.80;;;;;;;12.17;100.00;149098.09;6185991;23;20158;-60
2023/12/10 10:47:41;;;;;;;5.30;5.00;;;;;;;12.48;100.00;149176.53;6186053;23;20240;-59
2023/12/10 10:50:11;;;;;;;5.60;5.20;;;;;;;12.81;100.00;149260.09;6185820;23;20158;-59
2023/12/10 10:52:39;;;;;;;5.37;5.07;;;;;;;12.70;100.00;149230.97;6185817;23;20552;-59
2023/12/10 10:55:07;;;;;;;5.20;4.90;;;;;;;12.32;100.00;149137.31;6186176;23;20597;-60
2023/12/10 10:57:35;;;;;;;5.40;5.10;;;;;;;11.30;100.00;148880.41;6185798;23;20213;-59
2023/12/10 11:00:36;;;;;;;5.10;4.90;;;;;;;10.67;100.00;148722.34;6185567;23;20163;-61
2023/12/10 11:03:04;;;;;;;5.20;4.93;;;;;;;10.56;100.00;148694.56;6185512;23;20162;-60
2023/12/10 11:05:33;;;;;;;5.40;5.20;;;;;;;10.53;100.00;148688.19;6185911;23;20594;-60
2023/12/10 11:08:00;;;;;;;5.23;4.93;;;;;;;10.56;100.00;148694.56;6185309;23;20261;-59
2023/12/10 11:10:27;;;;;;;5.63;5.43;;;;;;;10.73;100.00;148738.81;6185858;23;20620;-61
2023/12/10 11:12:56;;;;;;;6.17;5.73;;;;;;;10.77;100.00;148747.66;6185812;23;20514;-60
2023/12/10 11:15:24;;;;;;;5.40;5.10;;;;;;;10.60;100.00;148704.66;6185330;23;20165;-61
2023/12/10 11:17:58;;;;;;;5.80;5.53;;;;;;;10.41;100.00;148659.16;6185284;23;20209;-61
2023/12/10 11:20:33;;;;;;;5.80;5.40;;;;;;;10.26;100.00;148621.25;6185827;23;20487;-60